Airport View

Enter AWOS ICAO identifier for current METAR.

ex. KFNL

KHIO 261253Z 27003KT 10SM OVC050 11/09 A2991 RMK AO2 SLP125 T01060089

26 Jun 2019 13:03

Phone: 503-640-2984

Other Area AWOS: KVUO - KSPB - KPDX - KUAO

TAF KHIO 261138Z 2612/2712 00000KT P6SM SCT030 BKN050 TEMPO 2612/2614 BKN028 OVC050 FM261900 VRB03KT P6SM OVC050 FM262200 22004KT P6SM -SHRAGS OVC040 FM270400 27003KT P6SM -SHRA SCT030 BKN050